Weather at Ag-Alley Airport [CLOSED]

Public forecast

Using degrees Fahrenheit for public forecast. Weather courtesy of forecast.io.

Closest aviation weather report (METAR) to Ag-Alley Airport

Closest report is Greater Rochester International Airport, 21.8 nm (40.4 km) W. Retrieved 2020/11/30 00:54 UTC (20 minutes ago):

KROC 300054Z 21005KT 10SM FEW140 BKN240 06/M03 A2994 RMK AO2 SLP146 T00561033

Closest aviation forecast (TAF) to Ag-Alley Airport

Closest forecast is Greater Rochester International Airport, 21.8 nm (40.4 km) W. Retrieved 2020-11-30 00:42 UTC (32 minutes ago):

TAF KROC 292339Z 3000/3024 19008KT P6SM BKN250 FM301300 15005KT 4SM RA BR OVC040 FM301500 09006KT 3SM RA BR OVC015 FM301700 05010G20KT 1SM RA BR OVC007 FM302100 02013G25KT 2SM RA BR OVC003 FM302300 33010G18KT 3SM BR VCSH OVC003